• Join FlightAware (Why Join?)
  • Login
  • US Flag 
 
07:26AM EST


 

Airport Tracker/Info


-or-


 

Live Flight TrackerFlight Track Log ✈ JAL335 ✈ 22.04.2013 ✈ RJTT / HND - RJFF / FUK

Flight Track Log - Related Links

Times and Time Zones

All times are in EDT time to prevent confusion due to time zone crossing. See the JAL335 flight status page for this flight to view local times or setup timezone preferences in your user account.

Time Position Orientation Groundspeed Altitude Reporting Facility
EDT Latitude Longitude Course Direction KTS MPH feet Rate Location/Type
07:29AM 35.4901 139.4132 258° West  Level Estimated
07:30AM 35.4691 139.2911 258° West  Level Estimated
07:31AM 35.4480 139.1691 258° West  Level Estimated
07:32AM 35.4276 139.0517 258° West  Level Estimated
07:33AM 35.4070 138.9344 258° West  Level Estimated
07:34AM 35.3863 138.8171 258° West  Level Estimated
07:35AM 35.3656 138.6999 258° West  Level Estimated
07:36AM 35.3447 138.5827 258° West  Level Estimated
07:37AM 35.3237 138.4657 258° West  Level Estimated
07:38AM 35.3026 138.3486 258° West  Level Estimated
07:39AM 35.2813 138.2316 258° West  Level Estimated
07:40AM 35.2600 138.1147 257° West  Level Estimated
07:41AM 35.2386 137.9978 257° West  Level Estimated
07:42AM 35.2170 137.8810 257° West  Level Estimated
07:43AM 35.1953 137.7643 257° West  Level Estimated
07:44AM 35.1735 137.6476 257° West  Level Estimated
07:45AM 35.1516 137.5310 257° West  Level Estimated
07:46AM 35.1296 137.4145 257° West  Level Estimated
07:47AM 35.1075 137.2980 257° West  Level Estimated
07:48AM 35.0853 137.1816 257° West  Level Estimated
07:49AM 35.0629 137.0652 257° West  Level Estimated
07:50AM 35.0405 136.9489 257° West  Level Estimated
07:51AM 35.0179 136.8327 257° West  Level Estimated
07:52AM 34.9952 136.7166 257° West  Level Estimated
07:53AM 34.9724 136.6005 257° West  Level Estimated
07:54AM 34.9495 136.4844 256° West  Level Estimated
07:55AM 34.9265 136.3685 256° West  Level Estimated
07:56AM 34.9034 136.2526 256° West  Level Estimated
07:57AM 34.8802 136.1367 256° West  Level Estimated
07:58AM 34.8568 136.0210 256° West  Level Estimated
07:59AM 34.8334 135.9052 256° West  Level Estimated
08:00AM 34.8098 135.7896 256° West  Level Estimated
08:01AM 34.7862 135.6740 256° West  Level Estimated
08:02AM 34.7624 135.5585 256° West  Level Estimated
08:03AM 34.7385 135.4431 256° West  Level Estimated
08:04AM 34.7145 135.3277 256° West  Level Estimated
08:05AM 34.6904 135.2124 256° West  Level Estimated
08:06AM 34.6662 135.0972 256° West  Level Estimated
08:07AM 34.6419 134.9820 256° West  Level Estimated
08:08AM 34.6174 134.8669 256° West  Level Estimated
08:09AM 34.5929 134.7518 256° West  Level Estimated
08:10AM 34.5663 134.6277 255° West  Level Estimated
08:11AM 34.5395 134.5036 255° West  Level Estimated
08:12AM 34.5127 134.3796 255° West  Level Estimated
08:13AM 34.4857 134.2557 255° West  Level Estimated
08:14AM 34.4585 134.1319 255° West  Level Estimated
08:15AM 34.4313 134.0081 255° West  Level Estimated
08:16AM 34.4039 133.8844 255° West  Level Estimated
08:17AM 34.3764 133.7608 255° West  Level Estimated
08:18AM 34.3488 133.6373 255° West  Level Estimated
08:19AM 34.3211 133.5139 255° West  Level Estimated
08:20AM 34.2932 133.3905 255° West  Level Estimated
08:21AM 34.2652 133.2672 255° West  Level Estimated
08:22AM 34.2371 133.1440 255° West  Level Estimated
08:23AM 34.2089 133.0209 255° West  Level Estimated
08:24AM 34.1805 132.8979 254° West  Level Estimated
08:25AM 34.1520 132.7749 254° West  Level Estimated
08:26AM 34.1234 132.6521 254° West  Level Estimated
08:27AM 34.0947 132.5293 254° West  Level Estimated
08:28AM 34.0658 132.4066 254° West  Level Estimated
08:29AM 34.0369 132.2840 254° West  Level Estimated
08:30AM 34.0078 132.1615 254° West  Level Estimated
08:31AM 33.9786 132.0390 254° West  Level Estimated
08:32AM 33.9492 131.9167 254° West  Level Estimated
08:33AM 33.9198 131.7944 254° West  Level Estimated
08:34AM 33.8902 131.6722 254° West  Level Estimated
08:35AM 33.8605 131.5501 254° West  Level Estimated
08:36AM 33.8303 131.4265 254° West  Level Estimated
08:37AM 33.7999 131.3029 254° West  Level Estimated
08:38AM 33.7695 131.1794 254° West  Level Estimated
08:39AM 33.7389 131.0560 253° West  Level Estimated
08:40AM 33.7082 130.9326 253° West  Level Estimated
08:41AM 33.6773 130.8094 253° West  Level Estimated
08:42AM 33.6464 130.6863 253° West  Level Estimated
08:43AM 33.6153 130.5632 253° West  Level Estimated
08:44AM 33.5866 130.4502 253° West  Level Estimated
08:45AM 33.5866 130.4502 248° West  Level Estimated
08:46AM 33.5866 130.4502 248° West  Level Estimated
08:47AM 33.5866 130.4502 248° West  Level Estimated
08:48AM 33.5866 130.4502 248° West  Level Estimated
08:49AM 33.5866 130.4502 248° West  Level Estimated